PAMR/MRI METAR and TAF weather

Enter ICAO airport designator
Station Type Date Time Source
PAMR METAR 2018/12/10 08:53 UTC NOAA

PAMR 100853Z 35005KT 10SM BKN075 OVC120 M04/M08 A2912 RMK AO2 SLP864 T10441078 410171078 58002


Station Type Date Time Source
PAMR Decoded METAR 2018/12/10 08:53 UTC NOAA

ANCHORAGE MERRILL FIELD, AK, United States (PAMR) 61-13N 149-51W
Dec 10, 2018 - 03:53 AM EST / 2018.12.10 0853 UTC
Wind: from the N (350 degrees) at 6 MPH (5 KT):0
Visibility: 10 mile(s):0
Sky conditions: overcast
Temperature: 24.1 F (-4.4 C)
Windchill: 17 F (-8 C):1
Dew Point: 18.0 F (-7.8 C)
Relative Humidity: 77%
Pressure (altimeter): 29.12 in. Hg (986 hPa)
Pressure tendency: 0.01 inches (0.2 hPa) lower than three hours ago
ob: PAMR 100853Z 35005KT 10SM BKN075 OVC120 M04/M08 A2912 RMK AO2 SLP864 T10441078 410171078 58002
cycle: 9

Station Type Date Time Source
PAMR TAF UTC NOAA

Error!


Example: see airport list